Time;durP1;ratioP1;P1;durP2;ratioP2;P2;SDS_P1;SDS_P2;PMS_P1;PMS_P2;Temp;Humidity;BMP_temperature;BMP_pressure;BME280_temperature;BME280_humidity;BME280_pressure;Samples;Min_cycle;Max_cycle;Signal;HPM_P1;HPM_P2
2023/08/15 00:01:49;;;;;;;8.00;7.20;;;18.30;99.90;;;;;;7371931;19;20035;-61
2023/08/15 00:04:15;;;;;;;8.63;6.60;;;18.20;99.90;;;;;;7368664;19;20124;-61
2023/08/15 00:06:41;;;;;;;10.43;7.00;;;18.30;99.90;;;;;;7371410;19;20753;-61
2023/08/15 00:09:10;;;;;;;10.50;7.55;;;18.20;99.90;;;;;;7372079;19;20382;-60
2023/08/15 00:11:36;;;;;;;9.68;7.05;;;18.20;99.90;;;;;;7376008;19;20043;-61
2023/08/15 00:14:02;;;;;;;10.60;7.68;;;18.20;99.90;;;;;;7368995;19;20033;-62
2023/08/15 00:16:29;;;;;;;10.32;7.57;;;18.10;99.90;;;;;;7371805;19;20093;-61
2023/08/15 00:18:58;;;;;;;13.50;8.35;;;18.10;99.90;;;;;;7371138;19;20538;-61
2023/08/15 00:21:24;;;;;;;10.02;7.43;;;18.10;99.90;;;;;;7371943;19;20045;-61
2023/08/15 00:23:51;;;;;;;9.20;7.50;;;18.10;99.90;;;;;;7371732;19;20786;-61
2023/08/15 00:26:17;;;;;;;9.40;8.20;;;18.10;99.90;;;;;;7373526;19;20030;-61
2023/08/15 00:28:43;;;;;;;10.75;8.05;;;18.00;99.90;;;;;;7375376;19;20022;-62
2023/08/15 00:31:10;;;;;;;8.30;6.85;;;18.00;99.90;;;;;;7371014;19;20022;-61
2023/08/15 00:33:36;;;;;;;9.18;7.05;;;17.90;99.90;;;;;;7372437;19;20533;-61
2023/08/15 00:36:04;;;;;;;8.95;7.10;;;17.90;99.90;;;;;;7370075;19;20435;-61
2023/08/15 00:38:30;;;;;;;10.93;7.40;;;17.90;99.90;;;;;;7371587;19;20034;-61
2023/08/15 00:40:56;;;;;;;8.40;7.53;;;17.80;99.90;;;;;;7369775;19;20482;-61
2023/08/15 00:43:22;;;;;;;12.38;8.93;;;17.80;99.90;;;;;;7369377;19;20422;-61
2023/08/15 00:45:49;;;;;;;11.95;7.97;;;17.80;99.90;;;;;;7374161;19;20023;-61
2023/08/15 00:48:16;;;;;;;9.70;7.53;;;17.70;99.90;;;;;;7370916;19;20021;-60
2023/08/15 00:50:47;;;;;;;10.73;9.32;;;17.70;99.90;;;;;;7371132;19;20458;-61
2023/08/15 00:53:14;;;;;;;10.77;8.95;;;17.80;99.90;;;;;;7370741;19;20033;-61
2023/08/15 00:55:41;;;;;;;14.93;10.30;;;17.80;99.90;;;;;;7372718;19;20463;-61
2023/08/15 00:58:08;;;;;;;9.95;8.88;;;17.80;99.90;;;;;;7369854;19;20334;-60
2023/08/15 01:00:34;;;;;;;14.50;9.68;;;17.80;99.90;;;;;;7374882;19;20017;-61
2023/08/15 01:03:01;;;;;;;12.93;10.77;;;17.80;99.90;;;;;;7369746;19;20022;-60
2023/08/15 01:05:28;;;;;;;12.48;10.90;;;17.90;99.90;;;;;;7371880;19;20058;-61
2023/08/15 01:07:58;;;;;;;14.35;11.13;;;18.00;99.90;;;;;;7370792;19;20022;-61
2023/08/15 01:10:28;;;;;;;13.23;10.77;;;18.00;99.90;;;;;;7368494;19;20424;-61
2023/08/15 01:13:09;;;;;;;11.85;10.52;;;18.00;99.90;;;;;;7368353;19;20019;-60
2023/08/15 01:15:41;;;;;;;12.23;10.82;;;18.00;99.90;;;;;;7366338;19;20019;-61
2023/08/15 01:18:28;;;;;;;15.48;12.75;;;17.90;99.90;;;;;;7372986;19;20029;-61
2023/08/15 01:20:56;;;;;;;16.33;12.30;;;17.90;99.90;;;;;;7377224;19;20061;-61
2023/08/15 01:23:52;;;;;;;16.45;11.55;;;17.90;99.90;;;;;;7374399;19;20488;-61
2023/08/15 01:26:19;;;;;;;13.50;11.63;;;17.90;99.90;;;;;;7375251;19;20491;-62
2023/08/15 01:28:45;;;;;;;13.10;11.60;;;17.90;99.90;;;;;;7375801;19;20014;-62
2023/08/15 01:31:18;;;;;;;14.63;11.57;;;17.90;99.90;;;;;;7377970;19;20280;-61
2023/08/15 01:33:54;;;;;;;14.35;12.30;;;18.00;99.90;;;;;;7374362;19;20029;-61
2023/08/15 01:36:31;;;;;;;16.20;12.75;;;18.00;99.90;;;;;;7373148;19;20022;-61
2023/08/15 01:39:04;;;;;;;14.95;13.07;;;18.00;99.90;;;;;;7374791;19;20018;-61
2023/08/15 01:41:35;;;;;;;14.80;12.77;;;17.90;99.90;;;;;;7376614;19;20022;-61
2023/08/15 01:44:03;;;;;;;15.57;12.80;;;17.90;99.90;;;;;;7369261;19;20046;-60
2023/08/15 01:46:32;;;;;;;16.50;13.75;;;17.90;99.90;;;;;;7375243;19;20017;-61
2023/08/15 01:48:59;;;;;;;15.60;13.48;;;17.90;99.90;;;;;;7373397;19;20022;-61
2023/08/15 01:51:26;;;;;;;14.52;12.60;;;17.80;99.90;;;;;;7373769;19;20041;-61
2023/08/15 01:53:52;;;;;;;14.27;12.88;;;17.80;99.90;;;;;;7375564;19;20050;-61
2023/08/15 01:56:19;;;;;;;17.58;13.10;;;17.80;99.90;;;;;;7372821;19;20022;-62
2023/08/15 01:58:48;;;;;;;16.48;14.23;;;17.80;99.90;;;;;;7373403;19;20031;-62
2023/08/15 02:01:14;;;;;;;16.90;14.43;;;17.90;99.90;;;;;;7374355;19;20018;-61
2023/08/15 02:03:41;;;;;;;19.75;14.35;;;17.90;99.90;;;;;;7374147;19;20014;-61
2023/08/15 02:06:08;;;;;;;17.40;15.05;;;18.00;99.90;;;;;;7373526;19;20048;-62
2023/08/15 02:08:34;;;;;;;15.52;14.00;;;18.10;99.90;;;;;;7375181;19;20022;-61
2023/08/15 02:11:01;;;;;;;15.80;14.30;;;18.00;99.90;;;;;;7369700;19;20026;-61
2023/08/15 02:13:30;;;;;;;15.75;14.15;;;18.00;99.90;;;;;;7377199;19;20022;-60
2023/08/15 02:15:57;;;;;;;19.17;14.73;;;18.00;99.90;;;;;;7377527;19;20483;-61
2023/08/15 02:18:43;;;;;;;16.40;14.40;;;18.00;99.90;;;;;;7376316;19;20019;-61
2023/08/15 02:21:09;;;;;;;16.10;13.95;;;18.00;99.90;;;;;;7371598;19;20025;-60
2023/08/15 02:23:36;;;;;;;16.38;14.68;;;18.00;99.90;;;;;;7374080;19;20026;-61
2023/08/15 02:26:02;;;;;;;15.95;14.25;;;17.90;99.90;;;;;;7375287;19;20048;-61
2023/08/15 02:28:31;;;;;;;20.92;15.38;;;18.00;99.90;;;;;;7375269;19;20033;-62
2023/08/15 02:30:57;;;;;;;16.92;15.32;;;17.90;99.90;;;;;;7373581;19;20492;-62
2023/08/15 02:33:23;;;;;;;16.98;15.32;;;17.90;99.90;;;;;;7375765;19;20056;-61
2023/08/15 02:35:51;;;;;;;18.02;15.68;;;17.80;99.90;;;;;;7373579;19;20524;-61
2023/08/15 02:38:17;;;;;;;18.00;15.38;;;17.80;99.90;;;;;;7372671;19;20519;-61
2023/08/15 02:40:43;;;;;;;17.10;15.40;;;17.80;99.90;;;;;;7373110;19;20480;-61
2023/08/15 02:43:11;;;;;;;16.90;15.13;;;17.80;99.90;;;;;;7372859;19;20130;-61
2023/08/15 02:45:37;;;;;;;18.60;16.85;;;17.80;99.90;;;;;;7371084;19;20823;-61
2023/08/15 02:48:04;;;;;;;21.08;18.85;;;17.80;99.90;;;;;;7372822;19;20050;-61
2023/08/15 02:50:30;;;;;;;20.55;18.70;;;17.90;99.90;;;;;;7372602;19;20588;-61
2023/08/15 02:52:57;;;;;;;20.73;18.58;;;18.00;99.90;;;;;;7372618;19;20354;-60
2023/08/15 02:55:23;;;;;;;22.45;17.80;;;18.10;99.90;;;;;;7372830;19;20632;-62
2023/08/15 02:57:49;;;;;;;21.45;18.75;;;18.10;99.90;;;;;;7371892;19;20985;-61
2023/08/15 03:00:16;;;;;;;21.23;19.13;;;18.20;99.90;;;;;;7373575;19;20046;-61
2023/08/15 03:02:42;;;;;;;21.75;19.42;;;18.10;99.90;;;;;;7373539;19;20014;-61
2023/08/15 03:05:08;;;;;;;22.00;19.77;;;18.10;99.90;;;;;;7371170;19;20480;-61
2023/08/15 03:07:34;;;;;;;20.42;18.35;;;18.10;99.90;;;;;;7371859;19;20485;-61
2023/08/15 03:10:04;;;;;;;21.30;18.63;;;18.10;99.90;;;;;;7371326;19;20018;-62
2023/08/15 03:12:30;;;;;;;22.52;20.27;;;18.10;99.90;;;;;;7371657;19;20046;-61
2023/08/15 03:14:59;;;;;;;21.10;19.08;;;18.10;99.90;;;;;;7369545;19;20022;-62
2023/08/15 03:17:26;;;;;;;22.90;20.70;;;18.10;99.90;;;;;;7369443;19;20515;-61
2023/08/15 03:19:54;;;;;;;23.05;20.40;;;18.10;99.90;;;;;;7374937;19;20025;-61
2023/08/15 03:22:20;;;;;;;23.85;21.45;;;18.20;99.90;;;;;;7371918;19;20379;-61
2023/08/15 03:24:47;;;;;;;23.40;21.02;;;18.10;99.90;;;;;;7373610;19;20114;-61
2023/08/15 03:27:13;;;;;;;25.85;23.15;;;18.20;99.90;;;;;;7371715;19;20023;-61
2023/08/15 03:29:40;;;;;;;23.20;20.80;;;18.20;99.90;;;;;;7374182;19;20470;-64
2023/08/15 03:32:07;;;;;;;25.92;23.42;;;18.30;99.90;;;;;;7371964;19;20019;-61
2023/08/15 03:34:36;;;;;;;24.48;21.92;;;18.30;99.90;;;;;;7369963;19;20435;-61
2023/08/15 03:37:02;;;;;;;24.63;22.25;;;18.40;99.90;;;;;;7367867;19;20405;-61
2023/08/15 03:39:29;;;;;;;25.60;22.58;;;18.40;99.90;;;;;;7373458;19;20014;-61
2023/08/15 03:41:55;;;;;;;26.55;23.95;;;18.40;99.90;;;;;;7372192;19;20014;-61
2023/08/15 03:44:21;;;;;;;24.52;22.02;;;18.40;99.90;;;;;;7371400;19;20018;-62
2023/08/15 03:46:48;;;;;;;25.52;22.90;;;18.50;99.90;;;;;;7373364;19;20734;-61
2023/08/15 03:49:35;;;;;;;24.85;22.42;;;18.50;99.90;;;;;;7372325;19;20018;-62
2023/08/15 03:52:02;;;;;;;23.00;20.77;;;18.50;99.90;;;;;;7370610;19;20018;-65
2023/08/15 03:54:33;;;;;;;24.35;21.83;;;18.50;99.90;;;;;;7372868;19;21399;-61
2023/08/15 03:57:00;;;;;;;23.95;21.63;;;18.50;99.90;;;;;;7369675;19;20106;-61
2023/08/15 03:59:26;;;;;;;24.10;21.80;;;18.50;99.90;;;;;;7371431;19;20014;-61
2023/08/15 04:01:52;;;;;;;24.17;21.83;;;18.50;99.90;;;;;;7371599;19;20018;-61
2023/08/15 04:04:19;;;;;;;25.42;23.13;;;18.50;99.90;;;;;;7367261;19;20388;-62
2023/08/15 04:06:45;;;;;;;24.15;21.85;;;18.50;99.90;;;;;;7372111;19;20477;-61
2023/08/15 04:09:11;;;;;;;23.60;21.27;;;18.50;99.90;;;;;;7367522;19;20029;-62
2023/08/15 04:11:38;;;;;;;24.55;22.30;;;18.50;99.90;;;;;;7370404;19;20019;-60
2023/08/15 04:14:04;;;;;;;24.10;21.77;;;18.60;99.90;;;;;;7367589;19;20692;-61
2023/08/15 04:16:30;;;;;;;23.50;21.00;;;18.60;99.90;;;;;;7368556;19;20018;-61
2023/08/15 04:18:56;;;;;;;24.92;22.42;;;18.60;99.90;;;;;;7370969;19;20441;-61
2023/08/15 04:21:26;;;;;;;23.92;21.55;;;18.70;99.90;;;;;;7369494;19;20026;-60
2023/08/15 04:23:52;;;;;;;24.45;22.13;;;18.70;99.90;;;;;;7371892;19;20554;-61
2023/08/15 04:26:18;;;;;;;24.40;21.48;;;18.70;99.90;;;;;;7366933;19;20029;-61
2023/08/15 04:28:46;;;;;;;23.27;21.15;;;18.70;99.90;;;;;;7368765;19;20015;-61
2023/08/15 04:31:12;;;;;;;47.10;27.35;;;18.70;99.90;;;;;;7370977;19;20014;-61
2023/08/15 04:33:39;;;;;;;32.28;22.30;;;18.60;99.90;;;;;;7373530;19;20414;-60
2023/08/15 04:36:07;;;;;;;41.17;23.92;;;18.10;99.90;;;;;;7369595;19;20347;-60
2023/08/15 04:38:34;;;;;;;29.90;23.55;;;17.90;99.90;;;;;;7365396;19;20018;-60
2023/08/15 04:41:00;;;;;;;21.75;18.13;;;17.80;99.90;;;;;;7362410;19;20006;-59
2023/08/15 04:43:27;;;;;;;28.55;20.73;;;17.70;99.90;;;;;;7367287;19;20018;-60
2023/08/15 04:45:55;;;;;;;29.13;20.73;;;17.60;99.90;;;;;;7367285;19;20019;-61
2023/08/15 04:48:23;;;;;;;29.55;24.92;;;17.60;99.90;;;;;;7367985;19;20604;-61
2023/08/15 04:50:49;;;;;;;38.53;29.55;;;17.70;99.90;;;;;;7371856;19;20026;-59
2023/08/15 04:53:15;;;;;;;34.72;28.50;;;17.70;99.90;;;;;;7376082;19;20561;-59
2023/08/15 04:55:42;;;;;;;34.30;29.30;;;17.70;99.90;;;;;;7377966;19;20014;-59
2023/08/15 04:58:09;;;;;;;40.50;29.77;;;17.80;99.90;;;;;;7371510;19;20029;-59
2023/08/15 05:00:35;;;;;;;38.25;30.98;;;17.70;99.90;;;;;;7376718;19;20018;-59
2023/08/15 05:03:04;;;;;;;36.67;32.03;;;17.80;99.90;;;;;;7373878;19;20014;-58
2023/08/15 05:05:30;;;;;;;37.83;30.90;;;17.90;99.90;;;;;;7370039;19;20040;-61
2023/08/15 05:07:56;;;;;;;42.70;34.90;;;17.80;99.90;;;;;;7378540;19;20022;-65
2023/08/15 05:10:22;;;;;;;41.50;33.08;;;17.90;99.90;;;;;;7376907;19;20074;-60
2023/08/15 05:12:49;;;;;;;35.17;31.20;;;17.90;99.90;;;;;;7376330;19;20737;-60
2023/08/15 05:15:15;;;;;;;36.58;30.65;;;17.80;99.90;;;;;;7375125;19;20557;-59
2023/08/15 05:17:43;;;;;;;44.58;32.35;;;17.90;99.90;;;;;;7369208;19;20018;-58
2023/08/15 05:20:12;;;;;;;34.13;29.92;;;17.90;99.90;;;;;;7372201;19;20029;-58
2023/08/15 05:22:38;;;;;;;38.60;30.75;;;17.90;99.90;;;;;;7375220;19;20045;-60
2023/08/15 05:25:04;;;;;;;49.85;36.00;;;17.90;99.90;;;;;;7374442;19;20529;-63
2023/08/15 05:27:33;;;;;;;34.90;29.58;;;17.90;99.90;;;;;;7372521;19;20612;-62
2023/08/15 05:30:00;;;;;;;32.50;27.40;;;17.80;99.90;;;;;;7374017;19;20022;-60
2023/08/15 05:32:26;;;;;;;29.65;26.52;;;18.00;99.90;;;;;;7375696;19;20015;-59
2023/08/15 05:34:52;;;;;;;37.45;30.30;;;17.80;99.90;;;;;;7375491;19;20014;-61
2023/08/15 05:37:19;;;;;;;37.97;30.27;;;17.90;99.90;;;;;;7363208;19;20065;-60
2023/08/15 05:39:46;;;;;;;34.65;27.27;;;17.90;99.90;;;;;;7376899;19;20014;-58
2023/08/15 05:42:17;;;;;;;26.70;23.20;;;18.00;99.90;;;;;;7373936;19;20014;-58
2023/08/15 05:44:45;;;;;;;24.25;20.75;;;18.00;99.90;;;;;;7383078;19;20018;-61
2023/08/15 05:47:12;;;;;;;22.60;20.10;;;17.80;99.90;;;;;;7377835;19;20518;-61
2023/08/15 05:49:41;;;;;;;21.23;18.75;;;17.90;99.90;;;;;;7379880;19;20031;-61
2023/08/15 05:52:07;;;;;;;23.75;18.30;;;17.70;99.90;;;;;;7377905;19;20490;-60
2023/08/15 05:54:33;;;;;;;24.30;18.70;;;17.70;99.90;;;;;;7379291;19;20014;-62
2023/08/15 05:57:00;;;;;;;20.52;17.50;;;17.70;99.90;;;;;;7375391;19;20105;-60
2023/08/15 05:59:26;;;;;;;20.52;16.55;;;17.70;99.90;;;;;;7379991;19;20048;-63
2023/08/15 06:01:52;;;;;;;22.40;16.50;;;17.70;99.90;;;;;;7379814;19;20018;-60
2023/08/15 06:04:21;;;;;;;21.83;16.58;;;17.70;99.90;;;;;;7374691;19;20836;-60
2023/08/15 06:06:47;;;;;;;19.65;16.27;;;17.60;99.90;;;;;;7377316;19;20523;-60
2023/08/15 06:09:13;;;;;;;19.38;15.02;;;17.50;99.90;;;;;;7376398;19;20426;-60
2023/08/15 06:11:39;;;;;;;19.90;15.68;;;17.60;99.90;;;;;;7379783;19;20034;-61
2023/08/15 06:14:06;;;;;;;19.45;15.55;;;17.50;99.90;;;;;;7376401;19;20018;-60
2023/08/15 06:16:32;;;;;;;20.20;16.23;;;17.50;99.90;;;;;;7375346;19;20832;-61
2023/08/15 06:18:58;;;;;;;24.45;14.95;;;17.50;99.90;;;;;;7377765;19;20019;-61
2023/08/15 06:21:25;;;;;;;19.15;15.10;;;17.50;99.90;;;;;;7378949;19;20015;-61
2023/08/15 06:23:51;;;;;;;21.52;13.30;;;17.60;99.90;;;;;;7378996;19;20402;-61
2023/08/15 06:26:17;;;;;;;19.23;13.48;;;17.60;99.90;;;;;;7375922;19;20018;-62
2023/08/15 06:28:44;;;;;;;17.40;12.63;;;17.80;99.90;;;;;;7376925;19;20018;-61
2023/08/15 06:31:10;;;;;;;20.23;10.63;;;18.10;99.90;;;;;;7378357;19;20657;-61
2023/08/15 06:33:37;;;;;;;15.05;8.60;;;18.20;99.90;;;;;;7376212;19;20048;-61
2023/08/15 06:36:04;;;;;;;12.18;7.30;;;18.40;99.90;;;;;;7376380;19;20025;-61
2023/08/15 06:38:30;;;;;;;12.18;6.95;;;18.30;99.90;;;;;;7377025;19;20146;-61
2023/08/15 06:40:58;;;;;;;16.65;7.88;;;18.10;99.90;;;;;;7379429;19;20419;-61
2023/08/15 06:43:24;;;;;;;13.35;6.88;;;18.20;99.90;;;;;;7376141;19;20078;-61
2023/08/15 06:45:50;;;;;;;12.20;6.22;;;18.40;99.90;;;;;;7376753;19;20018;-61
2023/08/15 06:48:17;;;;;;;11.73;5.70;;;18.50;99.90;;;;;;7372869;19;20014;-60
2023/08/15 06:50:43;;;;;;;13.20;7.22;;;18.50;99.90;;;;;;7375270;19;20014;-60
2023/08/15 06:53:09;;;;;;;10.63;6.00;;;18.80;99.90;;;;;;7373492;19;20026;-61
2023/08/15 06:55:35;;;;;;;9.27;5.70;;;19.00;99.90;;;;;;7375747;19;20378;-58
2023/08/15 06:58:03;;;;;;;10.38;6.00;;;19.20;99.90;;;;;;7371780;19;20021;-58
2023/08/15 07:00:30;;;;;;;9.70;4.88;;;19.30;99.90;;;;;;7377395;19;20373;-58
2023/08/15 07:02:57;;;;;;;14.48;5.68;;;19.50;99.90;;;;;;7377383;19;20015;-58
2023/08/15 07:05:23;;;;;;;12.95;5.22;;;19.50;99.90;;;;;;7374389;19;20442;-58
2023/08/15 07:07:49;;;;;;;11.52;4.75;;;19.80;99.90;;;;;;7376045;19;20094;-58
2023/08/15 07:10:15;;;;;;;9.52;4.90;;;19.90;99.90;;;;;;7376108;19;20050;-58
2023/08/15 07:12:41;;;;;;;11.38;4.80;;;19.90;99.90;;;;;;7375995;19;20019;-58
2023/08/15 07:15:08;;;;;;;11.60;4.95;;;20.10;99.90;;;;;;7374837;19;20944;-58
2023/08/15 07:17:34;;;;;;;12.90;4.82;;;20.20;99.90;;;;;;7373816;19;20038;-61
2023/08/15 07:20:01;;;;;;;10.65;4.18;;;20.20;99.90;;;;;;7373891;19;20018;-61
2023/08/15 07:22:27;;;;;;;12.73;4.55;;;20.10;99.90;;;;;;7375094;19;20523;-61
2023/08/15 07:24:53;;;;;;;10.23;4.88;;;20.20;99.90;;;;;;7376323;19;20121;-61
2023/08/15 07:27:20;;;;;;;11.05;4.18;;;20.10;99.90;;;;;;7372148;19;20438;-61
2023/08/15 07:29:46;;;;;;;8.57;3.85;;;20.50;99.90;;;;;;7377300;19;20018;-61
2023/08/15 07:32:13;;;;;;;12.02;3.83;;;20.70;99.90;;;;;;7373433;19;20028;-61
2023/08/15 07:34:39;;;;;;;9.57;3.85;;;20.40;99.90;;;;;;7375012;19;20014;-61
2023/08/15 07:37:05;;;;;;;12.82;4.60;;;20.40;99.90;;;;;;7373106;19;20089;-61
2023/08/15 07:39:32;;;;;;;12.13;5.47;;;20.60;99.90;;;;;;7374731;19;20364;-61
2023/08/15 07:41:58;;;;;;;11.18;4.93;;;20.40;99.90;;;;;;7376080;19;20032;-61
2023/08/15 07:44:25;;;;;;;11.32;5.53;;;20.30;99.90;;;;;;7374062;19;20018;-61
2023/08/15 07:46:52;;;;;;;9.20;5.47;;;20.40;99.90;;;;;;7374274;19;20021;-61
2023/08/15 07:49:19;;;;;;;10.82;5.25;;;20.60;99.90;;;;;;7373917;19;20402;-61
2023/08/15 07:51:45;;;;;;;13.02;5.40;;;21.00;99.90;;;;;;7375342;19;20529;-58
2023/08/15 07:54:11;;;;;;;10.60;4.90;;;20.80;99.90;;;;;;7373301;19;20011;-58
2023/08/15 07:56:37;;;;;;;9.70;5.20;;;20.50;99.90;;;;;;7373060;19;20019;-58
2023/08/15 07:59:04;;;;;;;9.20;5.43;;;20.70;99.90;;;;;;7372308;19;20021;-58
2023/08/15 08:01:30;;;;;;;11.40;5.13;;;21.00;99.90;;;;;;7373325;19;20014;-58
2023/08/15 08:03:57;;;;;;;9.73;3.85;;;21.50;99.90;;;;;;7374470;19;20042;-58
2023/08/15 08:06:27;;;;;;;8.95;4.40;;;21.80;99.90;;;;;;7373351;19;20034;-58
2023/08/15 08:08:53;;;;;;;8.95;4.07;;;21.90;99.90;;;;;;7373355;19;20880;-60
2023/08/15 08:11:19;;;;;;;8.93;4.13;;;21.80;99.90;;;;;;7374127;19;20019;-61
2023/08/15 08:13:45;;;;;;;8.13;3.63;;;21.60;99.90;;;;;;7375012;19;20022;-61
2023/08/15 08:16:12;;;;;;;9.35;3.45;;;21.30;99.90;;;;;;7373837;19;20027;-58
2023/08/15 08:18:38;;;;;;;5.30;2.83;;;21.10;99.90;;;;;;7372717;19;20021;-58
2023/08/15 08:21:06;;;;;;;8.77;3.88;;;21.30;99.90;;;;;;7371146;19;20477;-60
2023/08/15 08:23:33;;;;;;;7.60;2.65;;;21.20;99.90;;;;;;7373913;19;20033;-61
2023/08/15 08:26:01;;;;;;;10.77;3.90;;;21.50;99.90;;;;;;7373451;19;20581;-61
2023/08/15 08:28:29;;;;;;;9.52;4.15;;;21.90;99.90;;;;;;7371885;19;20021;-60
2023/08/15 08:30:56;;;;;;;9.35;4.55;;;21.90;99.90;;;;;;7376421;19;20025;-61
2023/08/15 08:33:23;;;;;;;7.45;3.80;;;21.70;99.90;;;;;;7372858;19;20018;-60
2023/08/15 08:35:49;;;;;;;7.78;3.92;;;22.00;99.90;;;;;;7372811;19;20582;-61
2023/08/15 08:38:15;;;;;;;11.27;4.50;;;22.00;99.90;;;;;;7367755;19;20018;-61
2023/08/15 08:40:42;;;;;;;7.00;4.00;;;22.10;99.90;;;;;;7374027;19;20039;-61
2023/08/15 08:43:10;;;;;;;10.60;4.28;;;22.20;99.90;;;;;;7371605;19;20030;-61
2023/08/15 08:45:42;;;;;;;8.25;4.25;;;22.50;99.90;;;;;;7375409;19;20493;-61
2023/08/15 08:48:09;;;;;;;9.23;4.35;;;22.60;99.90;;;;;;7371752;19;20015;-61
2023/08/15 08:50:37;;;;;;;10.65;4.70;;;22.40;99.90;;;;;;7374689;19;20014;-60
2023/08/15 08:53:03;;;;;;;8.85;4.72;;;22.40;99.90;;;;;;7369339;19;20090;-61
2023/08/15 08:55:31;;;;;;;12.43;5.43;;;22.30;99.90;;;;;;7372636;19;20038;-61
2023/08/15 08:58:02;;;;;;;10.45;4.35;;;22.40;99.90;;;;;;7369707;19;20015;-58
2023/08/15 09:00:31;;;;;;;8.48;3.83;;;22.60;99.90;;;;;;7371649;19;20921;-58
2023/08/15 09:02:58;;;;;;;8.02;4.05;;;22.90;99.90;;;;;;7372150;19;20464;-58
2023/08/15 09:05:26;;;;;;;7.13;3.17;;;23.20;99.90;;;;;;7370769;19;20019;-58
2023/08/15 09:07:52;;;;;;;7.80;3.63;;;23.80;99.90;;;;;;7372813;19;20017;-58
2023/08/15 09:10:21;;;;;;;9.57;3.72;;;24.00;99.90;;;;;;7370239;19;20490;-58
2023/08/15 09:12:48;;;;;;;7.85;2.97;;;24.10;99.90;;;;;;7373596;19;20019;-58
2023/08/15 09:15:14;;;;;;;10.88;4.22;;;24.40;99.90;;;;;;7373622;19;20007;-58
2023/08/15 09:17:42;;;;;;;7.80;2.97;;;24.40;99.90;;;;;;7372830;19;20019;-61
2023/08/15 09:20:11;;;;;;;11.82;3.80;;;24.70;99.90;;;;;;7371173;19;20019;-61
2023/08/15 09:22:40;;;;;;;8.55;2.97;;;25.10;99.90;;;;;;7375295;19;20486;-61
2023/08/15 09:25:07;;;;;;;8.90;2.58;;;25.00;99.90;;;;;;7375489;19;20026;-61
2023/08/15 09:27:38;;;;;;;7.25;2.50;;;25.20;99.90;;;;;;7373807;19;20035;-58
2023/08/15 09:30:13;;;;;;;5.20;2.20;;;24.90;99.90;;;;;;7370377;19;20054;-58
2023/08/15 09:32:40;;;;;;;7.18;3.05;;;25.30;99.90;;;;;;7372552;19;20359;-58
2023/08/15 09:35:09;;;;;;;8.55;2.78;;;25.20;99.90;;;;;;7371324;19;20019;-58
2023/08/15 09:37:41;;;;;;;7.90;2.80;;;25.00;99.90;;;;;;7372698;19;20019;-59
2023/08/15 09:40:09;;;;;;;8.18;2.90;;;25.10;99.90;;;;;;7377901;19;20018;-59
2023/08/15 09:42:36;;;;;;;6.55;2.60;;;25.70;99.90;;;;;;7378685;19;20050;-59
2023/08/15 09:45:03;;;;;;;9.70;3.10;;;26.40;99.90;;;;;;7377500;19;20472;-62
2023/08/15 09:47:30;;;;;;;6.75;3.08;;;26.10;99.90;;;;;;7377336;19;20018;-59
2023/08/15 09:50:00;;;;;;;8.25;3.25;;;26.10;99.90;;;;;;7377727;19;20089;-58
2023/08/15 09:52:28;;;;;;;6.18;2.33;;;25.40;99.90;;;;;;7376106;19;20078;-59
2023/08/15 09:54:55;;;;;;;6.70;2.35;;;25.00;99.90;;;;;;7379477;19;20035;-60
2023/08/15 09:57:21;;;;;;;5.05;2.20;;;24.80;99.90;;;;;;7376542;19;20469;-61
2023/08/15 09:59:48;;;;;;;7.80;3.03;;;24.30;99.90;;;;;;7375604;19;20984;-60
2023/08/15 10:02:22;;;;;;;5.65;2.33;;;24.10;99.90;;;;;;7377640;19;20082;-60
2023/08/15 10:05:11;;;;;;;7.03;2.00;;;24.00;99.90;;;;;;7377793;19;20082;-61
2023/08/15 10:07:38;;;;;;;8.40;2.50;;;24.50;99.90;;;;;;7378993;19;20018;-59
2023/08/15 10:10:05;;;;;;;6.10;2.00;;;24.60;99.90;;;;;;7364780;19;20037;-64
2023/08/15 10:12:34;;;;;;;10.35;4.90;;;24.20;99.90;;;;;;7374144;19;20489;-61
2023/08/15 10:15:01;;;;;;;5.90;3.05;;;24.90;99.90;;;;;;7372839;19;20320;-61
2023/08/15 10:17:31;;;;;;;6.47;3.65;;;25.60;99.90;;;;;;7372614;19;20632;-61
2023/08/15 10:20:05;;;;;;;7.20;2.75;;;25.80;99.90;;;;;;7372854;19;20023;-61
2023/08/15 10:22:35;;;;;;;10.32;6.03;;;25.90;99.90;;;;;;7373144;19;20026;-60
2023/08/15 10:25:35;;;;;;;6.28;4.40;;;26.30;99.90;;;;;;7374891;19;20039;-61
2023/08/15 10:28:08;;;;;;;13.30;8.82;;;26.60;99.90;;;;;;7375241;19;20022;-62
2023/08/15 10:30:45;;;;;;;7.35;2.78;;;27.20;99.90;;;;;;7371840;19;20477;-61
2023/08/15 10:33:16;;;;;;;5.85;3.05;;;27.30;99.90;;;;;;7376513;19;20018;-60
2023/08/15 10:36:04;;;;;;;5.65;3.25;;;27.20;99.90;;;;;;7374244;19;20022;-61
2023/08/15 10:38:32;;;;;;;6.60;3.58;;;26.70;99.90;;;;;;7371811;19;20022;-60
2023/08/15 10:41:04;;;;;;;7.30;3.58;;;26.40;99.90;;;;;;7374811;19;20035;-60
2023/08/15 10:43:33;;;;;;;5.90;2.60;;;26.20;99.90;;;;;;7373500;19;20021;-61
2023/08/15 10:46:01;;;;;;;10.95;7.68;;;25.90;99.90;;;;;;7367275;19;20021;-61
2023/08/15 10:48:47;;;;;;;6.65;3.08;;;26.40;99.90;;;;;;7374880;19;20010;-60
2023/08/15 10:51:18;;;;;;;6.38;2.72;;;26.10;99.90;;;;;;7364101;19;20015;-61
2023/08/15 10:53:58;;;;;;;8.13;2.67;;;26.30;99.90;;;;;;7371719;19;20041;-60
2023/08/15 10:56:32;;;;;;;6.57;3.15;;;25.50;99.90;;;;;;7368332;19;20375;-60
2023/08/15 10:59:02;;;;;;;9.35;3.72;;;25.80;99.90;;;;;;7371440;19;20100;-60
2023/08/15 11:01:30;;;;;;;9.80;4.72;;;25.80;99.90;;;;;;7373573;19;20015;-61
2023/08/15 11:03:58;;;;;;;7.13;4.15;;;25.80;99.90;;;;;;7371619;19;20503;-60
2023/08/15 11:06:24;;;;;;;7.13;2.88;;;26.20;99.90;;;;;;7370217;19;20018;-60
2023/08/15 11:08:56;;;;;;;7.88;3.40;;;26.30;99.90;;;;;;7374368;19;20668;-60
2023/08/15 11:11:23;;;;;;;10.18;5.78;;;26.50;99.90;;;;;;7373264;19;20028;-60
2023/08/15 11:13:51;;;;;;;9.45;4.40;;;26.40;99.90;;;;;;7375608;19;20015;-60
2023/08/15 11:16:20;;;;;;;6.75;3.35;;;25.70;99.90;;;;;;7371513;19;20044;-60
2023/08/15 11:18:48;;;;;;;21.88;18.95;;;26.10;99.90;;;;;;7375292;19;20412;-61
2023/08/15 11:21:16;;;;;;;8.88;5.75;;;26.40;99.90;;;;;;7373647;19;20111;-60
2023/08/15 11:23:43;;;;;;;8.50;2.78;;;25.90;99.90;;;;;;7368505;19;20018;-60
2023/08/15 11:26:10;;;;;;;8.23;3.30;;;25.90;99.90;;;;;;7369230;19;20071;-63
2023/08/15 11:28:37;;;;;;;8.10;3.72;;;25.80;99.90;;;;;;7369395;19;20360;-61
2023/08/15 11:31:08;;;;;;;9.57;4.30;;;25.90;99.90;;;;;;7371284;19;20021;-60
2023/08/15 11:33:35;;;;;;;;;;;26.00;99.90;;;;;;7370033;19;20389;-60
2023/08/15 11:36:06;;;;;;;9.23;3.88;;;26.40;99.90;;;;;;7374131;19;20440;-60
2023/08/15 11:38:33;;;;;;;6.78;4.20;;;26.40;99.90;;;;;;7366391;19;20018;-61
2023/08/15 11:41:01;;;;;;;14.18;9.75;;;26.30;99.90;;;;;;7365147;19;20024;-63
2023/08/15 11:43:29;;;;;;;6.57;2.90;;;26.00;99.90;;;;;;7372791;19;20010;-60
2023/08/15 11:45:56;;;;;;;9.35;3.60;;;26.00;99.90;;;;;;7371982;19;20450;-60
2023/08/15 11:48:22;;;;;;;13.02;6.68;;;25.90;99.90;;;;;;7369627;19;20433;-60
2023/08/15 11:50:50;;;;;;;9.32;3.05;;;26.00;99.90;;;;;;7372512;19;20111;-60
2023/08/15 11:53:18;;;;;;;7.78;3.28;;;26.50;99.90;;;;;;7370825;19;20027;-61
2023/08/15 11:55:46;;;;;;;8.40;3.95;;;27.10;99.90;;;;;;7373591;19;20030;-60
2023/08/15 11:58:32;;;;;;;7.95;2.70;;;27.10;99.90;;;;;;7369038;19;20033;-60
2023/08/15 12:01:06;;;;;;;8.30;4.22;;;26.80;99.90;;;;;;7369580;19;20379;-61
2023/08/15 12:03:34;;;;;;;8.48;2.78;;;26.80;99.90;;;;;;7372272;19;20482;-60
2023/08/15 12:06:06;;;;;;;12.18;9.45;;;27.40;99.90;;;;;;7368407;19;20197;-59
2023/08/15 12:08:32;;;;;;;7.45;4.10;;;27.20;99.90;;;;;;7368506;19;20482;-61
2023/08/15 12:11:08;;;;;;;5.65;2.20;;;27.40;99.90;;;;;;7368243;19;20565;-60
2023/08/15 12:13:36;;;;;;;6.35;3.38;;;27.30;99.90;;;;;;7363171;19;20014;-60
2023/08/15 12:16:03;;;;;;;10.23;6.80;;;27.20;99.90;;;;;;7371199;19;20524;-60
2023/08/15 12:18:31;;;;;;;11.57;6.78;;;27.70;99.90;;;;;;7367312;19;20014;-63
2023/08/15 12:20:57;;;;;;;7.97;2.40;;;27.80;99.90;;;;;;7368707;19;20045;-62
2023/08/15 12:23:25;;;;;;;6.78;2.47;;;27.50;99.90;;;;;;7370240;19;20447;-62
2023/08/15 12:25:52;;;;;;;9.93;3.10;;;26.90;99.90;;;;;;7370033;19;20018;-62
2023/08/15 12:28:18;;;;;;;7.18;2.45;;;26.60;99.90;;;;;;7369297;19;20043;-62
2023/08/15 12:30:46;;;;;;;5.63;2.42;;;26.50;99.90;;;;;;7369102;19;20518;-62
2023/08/15 12:33:12;;;;;;;8.00;2.92;;;26.10;99.90;;;;;;7369554;19;20036;-62
2023/08/15 12:35:39;;;;;;;7.35;3.42;;;25.80;99.90;;;;;;7372238;19;20482;-62
2023/08/15 12:38:05;;;;;;;8.02;3.15;;;25.30;99.90;;;;;;7366012;19;20078;-62
2023/08/15 12:40:32;;;;;;;6.55;3.00;;;24.90;99.90;;;;;;7371098;19;20372;-61